sensor_id;sensor_type;location;lat;lon;timestamp;P1;durP1;ratioP1;P2;durP2;ratioP2
15645;SDS011;7922;43.622;1.476;2024-01-16T00:01:05;14.00;;;11.40;;
15645;SDS011;7922;43.622;1.476;2024-01-16T00:03:31;13.13;;;11.83;;
15645;SDS011;7922;43.622;1.476;2024-01-16T00:05:56;12.73;;;11.43;;
15645;SDS011;7922;43.622;1.476;2024-01-16T00:08:21;12.17;;;10.97;;
15645;SDS011;7922;43.622;1.476;2024-01-16T00:10:46;11.33;;;10.30;;
15645;SDS011;7922;43.622;1.476;2024-01-16T00:13:12;11.37;;;10.27;;
15645;SDS011;7922;43.622;1.476;2024-01-16T00:15:39;10.80;;;9.80;;
15645;SDS011;7922;43.622;1.476;2024-01-16T00:18:05;12.53;;;10.80;;
15645;SDS011;7922;43.622;1.476;2024-01-16T00:20:30;10.57;;;9.50;;
15645;SDS011;7922;43.622;1.476;2024-01-16T00:22:55;10.40;;;9.43;;
15645;SDS011;7922;43.622;1.476;2024-01-16T00:25:21;10.27;;;9.17;;
15645;SDS011;7922;43.622;1.476;2024-01-16T00:27:46;10.47;;;9.47;;
15645;SDS011;7922;43.622;1.476;2024-01-16T00:30:11;9.70;;;8.80;;
15645;SDS011;7922;43.622;1.476;2024-01-16T00:32:38;9.03;;;8.17;;
15645;SDS011;7922;43.622;1.476;2024-01-16T00:35:04;8.97;;;8.03;;
15645;SDS011;7922;43.622;1.476;2024-01-16T00:37:29;9.07;;;8.20;;
15645;SDS011;7922;43.622;1.476;2024-01-16T00:39:55;8.90;;;8.03;;
15645;SDS011;7922;43.622;1.476;2024-01-16T00:42:20;9.87;;;7.83;;
15645;SDS011;7922;43.622;1.476;2024-01-16T00:44:45;8.63;;;7.83;;
15645;SDS011;7922;43.622;1.476;2024-01-16T00:47:10;8.53;;;7.70;;
15645;SDS011;7922;43.622;1.476;2024-01-16T00:49:36;8.50;;;7.47;;
15645;SDS011;7922;43.622;1.476;2024-01-16T00:52:01;7.23;;;6.63;;
15645;SDS011;7922;43.622;1.476;2024-01-16T00:54:26;7.50;;;6.57;;
15645;SDS011;7922;43.622;1.476;2024-01-16T00:56:51;6.53;;;5.93;;
15645;SDS011;7922;43.622;1.476;2024-01-16T00:59:17;6.30;;;5.70;;
15645;SDS011;7922;43.622;1.476;2024-01-16T01:01:42;5.70;;;4.67;;
15645;SDS011;7922;43.622;1.476;2024-01-16T01:04:07;4.70;;;4.37;;
15645;SDS011;7922;43.622;1.476;2024-01-16T01:06:34;4.00;;;3.60;;
15645;SDS011;7922;43.622;1.476;2024-01-16T01:09:00;3.63;;;3.17;;
15645;SDS011;7922;43.622;1.476;2024-01-16T01:11:25;2.30;;;2.00;;
15645;SDS011;7922;43.622;1.476;2024-01-16T01:13:51;2.07;;;1.60;;
15645;SDS011;7922;43.622;1.476;2024-01-16T01:16:16;2.10;;;1.90;;
15645;SDS011;7922;43.622;1.476;2024-01-16T01:18:41;3.57;;;2.30;;
15645;SDS011;7922;43.622;1.476;2024-01-16T01:21:06;2.40;;;1.60;;
15645;SDS011;7922;43.622;1.476;2024-01-16T01:23:32;2.73;;;1.80;;
15645;SDS011;7922;43.622;1.476;2024-01-16T01:25:57;2.10;;;1.90;;
15645;SDS011;7922;43.622;1.476;2024-01-16T01:28:22;2.20;;;2.00;;
15645;SDS011;7922;43.622;1.476;2024-01-16T01:30:48;2.10;;;1.50;;
15645;SDS011;7922;43.622;1.476;2024-01-16T01:33:13;1.70;;;1.60;;
15645;SDS011;7922;43.622;1.476;2024-01-16T01:35:38;1.40;;;1.30;;
15645;SDS011;7922;43.622;1.476;2024-01-16T01:38:03;1.40;;;1.20;;
15645;SDS011;7922;43.622;1.476;2024-01-16T01:40:29;2.00;;;1.40;;
15645;SDS011;7922;43.622;1.476;2024-01-16T01:42:54;1.60;;;1.50;;
15645;SDS011;7922;43.622;1.476;2024-01-16T01:45:19;3.10;;;1.50;;
15645;SDS011;7922;43.622;1.476;2024-01-16T01:47:44;1.63;;;1.40;;
15645;SDS011;7922;43.622;1.476;2024-01-16T01:50:11;1.87;;;1.70;;
15645;SDS011;7922;43.622;1.476;2024-01-16T01:52:40;1.53;;;1.30;;
15645;SDS011;7922;43.622;1.476;2024-01-16T01:55:10;4.23;;;1.80;;
15645;SDS011;7922;43.622;1.476;2024-01-16T01:57:38;1.93;;;1.70;;
15645;SDS011;7922;43.622;1.476;2024-01-16T02:00:04;2.23;;;1.57;;
15645;SDS011;7922;43.622;1.476;2024-01-16T02:02:30;2.10;;;1.73;;
15645;SDS011;7922;43.622;1.476;2024-01-16T02:04:57;1.40;;;1.30;;
15645;SDS011;7922;43.622;1.476;2024-01-16T02:07:22;1.90;;;1.70;;
15645;SDS011;7922;43.622;1.476;2024-01-16T02:09:48;2.97;;;1.70;;
15645;SDS011;7922;43.622;1.476;2024-01-16T02:12:13;2.30;;;1.70;;
15645;SDS011;7922;43.622;1.476;2024-01-16T02:14:39;2.30;;;2.03;;
15645;SDS011;7922;43.622;1.476;2024-01-16T02:17:04;3.73;;;1.70;;
15645;SDS011;7922;43.622;1.476;2024-01-16T02:19:29;1.83;;;1.73;;
15645;SDS011;7922;43.622;1.476;2024-01-16T02:21:57;2.50;;;2.10;;
15645;SDS011;7922;43.622;1.476;2024-01-16T02:24:25;2.17;;;1.67;;
15645;SDS011;7922;43.622;1.476;2024-01-16T02:26:50;2.23;;;1.90;;
15645;SDS011;7922;43.622;1.476;2024-01-16T02:29:16;2.03;;;1.67;;
15645;SDS011;7922;43.622;1.476;2024-01-16T02:31:41;3.00;;;1.63;;
15645;SDS011;7922;43.622;1.476;2024-01-16T02:34:06;1.70;;;1.60;;
15645;SDS011;7922;43.622;1.476;2024-01-16T02:36:32;3.07;;;1.73;;
15645;SDS011;7922;43.622;1.476;2024-01-16T02:38:57;1.97;;;1.50;;
15645;SDS011;7922;43.622;1.476;2024-01-16T02:41:23;1.60;;;1.50;;
15645;SDS011;7922;43.622;1.476;2024-01-16T02:43:48;3.60;;;1.70;;
15645;SDS011;7922;43.622;1.476;2024-01-16T02:46:14;1.87;;;1.77;;
15645;SDS011;7922;43.622;1.476;2024-01-16T02:48:39;3.73;;;1.63;;
15645;SDS011;7922;43.622;1.476;2024-01-16T02:51:05;1.93;;;1.77;;
15645;SDS011;7922;43.622;1.476;2024-01-16T02:53:31;3.10;;;1.40;;
15645;SDS011;7922;43.622;1.476;2024-01-16T02:55:56;2.50;;;1.80;;
15645;SDS011;7922;43.622;1.476;2024-01-16T02:58:22;1.67;;;1.57;;
15645;SDS011;7922;43.622;1.476;2024-01-16T03:00:47;1.47;;;1.33;;
15645;SDS011;7922;43.622;1.476;2024-01-16T03:03:12;3.40;;;1.80;;
15645;SDS011;7922;43.622;1.476;2024-01-16T03:05:38;1.30;;;1.20;;
15645;SDS011;7922;43.622;1.476;2024-01-16T03:08:03;2.00;;;1.40;;
15645;SDS011;7922;43.622;1.476;2024-01-16T03:10:29;2.10;;;1.20;;
15645;SDS011;7922;43.622;1.476;2024-01-16T03:12:54;1.97;;;1.30;;
15645;SDS011;7922;43.622;1.476;2024-01-16T03:15:19;2.17;;;1.60;;
15645;SDS011;7922;43.622;1.476;2024-01-16T03:17:45;3.20;;;1.40;;
15645;SDS011;7922;43.622;1.476;2024-01-16T03:20:10;3.73;;;1.57;;
15645;SDS011;7922;43.622;1.476;2024-01-16T03:22:36;3.50;;;1.67;;
15645;SDS011;7922;43.622;1.476;2024-01-16T03:25:01;2.97;;;1.53;;
15645;SDS011;7922;43.622;1.476;2024-01-16T03:27:26;1.77;;;1.63;;
15645;SDS011;7922;43.622;1.476;2024-01-16T03:29:52;1.50;;;1.40;;
15645;SDS011;7922;43.622;1.476;2024-01-16T03:32:17;1.67;;;1.57;;
15645;SDS011;7922;43.622;1.476;2024-01-16T03:34:42;1.70;;;1.60;;
15645;SDS011;7922;43.622;1.476;2024-01-16T03:37:07;4.13;;;1.60;;
15645;SDS011;7922;43.622;1.476;2024-01-16T03:39:33;1.87;;;1.77;;
15645;SDS011;7922;43.622;1.476;2024-01-16T03:41:58;3.10;;;2.03;;
15645;SDS011;7922;43.622;1.476;2024-01-16T03:44:23;2.03;;;1.80;;
15645;SDS011;7922;43.622;1.476;2024-01-16T03:46:48;2.00;;;1.70;;
15645;SDS011;7922;43.622;1.476;2024-01-16T03:49:14;2.20;;;2.00;;
15645;SDS011;7922;43.622;1.476;2024-01-16T03:51:39;2.27;;;2.00;;
15645;SDS011;7922;43.622;1.476;2024-01-16T03:54:04;3.30;;;1.97;;
15645;SDS011;7922;43.622;1.476;2024-01-16T03:56:30;3.03;;;2.30;;
15645;SDS011;7922;43.622;1.476;2024-01-16T03:58:55;3.00;;;2.20;;
15645;SDS011;7922;43.622;1.476;2024-01-16T04:01:30;3.77;;;2.33;;
15645;SDS011;7922;43.622;1.476;2024-01-16T04:03:56;2.50;;;2.30;;
15645;SDS011;7922;43.622;1.476;2024-01-16T04:06:21;4.53;;;2.27;;
15645;SDS011;7922;43.622;1.476;2024-01-16T04:08:46;2.40;;;2.20;;
15645;SDS011;7922;43.622;1.476;2024-01-16T04:11:12;4.27;;;2.30;;
15645;SDS011;7922;43.622;1.476;2024-01-16T04:13:37;5.53;;;2.20;;
15645;SDS011;7922;43.622;1.476;2024-01-16T04:16:03;5.37;;;2.60;;
15645;SDS011;7922;43.622;1.476;2024-01-16T04:18:28;2.87;;;2.67;;
15645;SDS011;7922;43.622;1.476;2024-01-16T04:20:53;3.20;;;3.00;;
15645;SDS011;7922;43.622;1.476;2024-01-16T04:23:19;4.60;;;3.20;;
15645;SDS011;7922;43.622;1.476;2024-01-16T04:25:44;4.00;;;3.70;;
15645;SDS011;7922;43.622;1.476;2024-01-16T04:28:09;4.37;;;3.97;;
15645;SDS011;7922;43.622;1.476;2024-01-16T04:30:35;5.10;;;4.60;;
15645;SDS011;7922;43.622;1.476;2024-01-16T04:33:00;5.13;;;4.70;;
15645;SDS011;7922;43.622;1.476;2024-01-16T04:35:25;5.27;;;4.77;;
15645;SDS011;7922;43.622;1.476;2024-01-16T04:37:50;6.23;;;4.43;;
15645;SDS011;7922;43.622;1.476;2024-01-16T04:40:16;7.73;;;5.00;;
15645;SDS011;7922;43.622;1.476;2024-01-16T04:42:41;5.37;;;4.87;;
15645;SDS011;7922;43.622;1.476;2024-01-16T04:45:06;6.47;;;5.27;;
15645;SDS011;7922;43.622;1.476;2024-01-16T04:47:32;6.27;;;5.63;;
15645;SDS011;7922;43.622;1.476;2024-01-16T04:49:57;5.40;;;5.00;;
15645;SDS011;7922;43.622;1.476;2024-01-16T04:52:22;5.27;;;4.80;;
15645;SDS011;7922;43.622;1.476;2024-01-16T04:54:48;5.77;;;5.00;;
15645;SDS011;7922;43.622;1.476;2024-01-16T04:57:13;6.27;;;5.63;;
15645;SDS011;7922;43.622;1.476;2024-01-16T04:59:38;7.80;;;5.10;;
15645;SDS011;7922;43.622;1.476;2024-01-16T05:02:03;6.23;;;5.60;;
15645;SDS011;7922;43.622;1.476;2024-01-16T05:04:29;6.00;;;5.40;;
15645;SDS011;7922;43.622;1.476;2024-01-16T05:06:54;5.83;;;5.33;;
15645;SDS011;7922;43.622;1.476;2024-01-16T05:09:19;6.17;;;5.57;;
15645;SDS011;7922;43.622;1.476;2024-01-16T05:11:45;6.33;;;5.83;;
15645;SDS011;7922;43.622;1.476;2024-01-16T05:14:10;7.07;;;6.37;;
15645;SDS011;7922;43.622;1.476;2024-01-16T05:16:35;6.27;;;5.80;;
15645;SDS011;7922;43.622;1.476;2024-01-16T05:19:01;6.50;;;5.30;;
15645;SDS011;7922;43.622;1.476;2024-01-16T05:21:26;6.70;;;6.10;;
15645;SDS011;7922;43.622;1.476;2024-01-16T05:23:51;6.43;;;5.33;;
15645;SDS011;7922;43.622;1.476;2024-01-16T05:26:16;6.40;;;5.80;;
15645;SDS011;7922;43.622;1.476;2024-01-16T05:28:42;6.07;;;5.47;;
15645;SDS011;7922;43.622;1.476;2024-01-16T05:31:07;5.93;;;5.30;;
15645;SDS011;7922;43.622;1.476;2024-01-16T05:33:32;6.07;;;5.30;;
15645;SDS011;7922;43.622;1.476;2024-01-16T05:35:58;5.37;;;4.70;;
15645;SDS011;7922;43.622;1.476;2024-01-16T05:38:23;4.87;;;4.47;;
15645;SDS011;7922;43.622;1.476;2024-01-16T05:40:48;4.60;;;4.23;;
15645;SDS011;7922;43.622;1.476;2024-01-16T05:43:13;3.90;;;3.47;;
15645;SDS011;7922;43.622;1.476;2024-01-16T05:45:39;4.40;;;3.50;;
15645;SDS011;7922;43.622;1.476;2024-01-16T05:48:04;4.37;;;3.27;;
15645;SDS011;7922;43.622;1.476;2024-01-16T05:50:29;3.77;;;2.40;;
15645;SDS011;7922;43.622;1.476;2024-01-16T05:52:55;4.07;;;3.00;;
15645;SDS011;7922;43.622;1.476;2024-01-16T05:55:20;3.33;;;2.53;;
15645;SDS011;7922;43.622;1.476;2024-01-16T05:57:45;2.93;;;2.73;;
15645;SDS011;7922;43.622;1.476;2024-01-16T06:00:11;3.17;;;2.77;;
15645;SDS011;7922;43.622;1.476;2024-01-16T06:02:36;2.97;;;2.40;;
15645;SDS011;7922;43.622;1.476;2024-01-16T06:05:02;4.10;;;2.40;;
15645;SDS011;7922;43.622;1.476;2024-01-16T06:07:27;2.90;;;2.50;;
15645;SDS011;7922;43.622;1.476;2024-01-16T06:09:52;2.47;;;1.90;;
15645;SDS011;7922;43.622;1.476;2024-01-16T06:12:18;3.20;;;2.07;;
15645;SDS011;7922;43.622;1.476;2024-01-16T06:14:43;2.77;;;1.97;;
15645;SDS011;7922;43.622;1.476;2024-01-16T06:17:08;3.80;;;2.20;;
15645;SDS011;7922;43.622;1.476;2024-01-16T06:19:33;2.03;;;1.93;;
15645;SDS011;7922;43.622;1.476;2024-01-16T06:21:59;4.37;;;2.10;;
15645;SDS011;7922;43.622;1.476;2024-01-16T06:24:24;3.67;;;2.00;;
15645;SDS011;7922;43.622;1.476;2024-01-16T06:26:50;2.27;;;1.70;;
15645;SDS011;7922;43.622;1.476;2024-01-16T06:29:15;2.83;;;1.80;;
15645;SDS011;7922;43.622;1.476;2024-01-16T06:31:40;2.33;;;1.70;;
15645;SDS011;7922;43.622;1.476;2024-01-16T06:34:06;2.77;;;1.90;;
15645;SDS011;7922;43.622;1.476;2024-01-16T06:36:31;2.03;;;1.73;;
15645;SDS011;7922;43.622;1.476;2024-01-16T06:38:56;1.93;;;1.50;;
15645;SDS011;7922;43.622;1.476;2024-01-16T06:41:21;1.77;;;1.47;;
15645;SDS011;7922;43.622;1.476;2024-01-16T06:43:47;2.40;;;1.43;;
15645;SDS011;7922;43.622;1.476;2024-01-16T06:46:12;1.77;;;1.60;;
15645;SDS011;7922;43.622;1.476;2024-01-16T06:48:37;3.40;;;1.67;;
15645;SDS011;7922;43.622;1.476;2024-01-16T06:51:03;2.60;;;1.50;;
15645;SDS011;7922;43.622;1.476;2024-01-16T06:53:28;3.50;;;2.07;;
15645;SDS011;7922;43.622;1.476;2024-01-16T06:55:54;3.20;;;1.60;;
15645;SDS011;7922;43.622;1.476;2024-01-16T06:58:19;2.20;;;2.00;;
15645;SDS011;7922;43.622;1.476;2024-01-16T07:00:44;3.13;;;1.80;;
15645;SDS011;7922;43.622;1.476;2024-01-16T07:03:11;2.60;;;1.60;;
15645;SDS011;7922;43.622;1.476;2024-01-16T07:05:36;3.13;;;2.03;;
15645;SDS011;7922;43.622;1.476;2024-01-16T07:08:02;2.87;;;1.43;;
15645;SDS011;7922;43.622;1.476;2024-01-16T07:10:27;2.10;;;1.90;;
15645;SDS011;7922;43.622;1.476;2024-01-16T07:12:53;2.60;;;1.90;;
15645;SDS011;7922;43.622;1.476;2024-01-16T07:15:18;1.77;;;1.37;;
15645;SDS011;7922;43.622;1.476;2024-01-16T07:17:44;2.30;;;1.40;;
15645;SDS011;7922;43.622;1.476;2024-01-16T07:20:09;1.60;;;1.50;;
15645;SDS011;7922;43.622;1.476;2024-01-16T07:22:36;3.50;;;1.43;;
15645;SDS011;7922;43.622;1.476;2024-01-16T07:25:02;1.60;;;1.33;;
15645;SDS011;7922;43.622;1.476;2024-01-16T07:27:27;1.90;;;1.27;;
15645;SDS011;7922;43.622;1.476;2024-01-16T07:29:53;2.80;;;1.93;;
15645;SDS011;7922;43.622;1.476;2024-01-16T07:32:18;4.17;;;2.00;;
15645;SDS011;7922;43.622;1.476;2024-01-16T07:34:43;4.43;;;2.27;;
15645;SDS011;7922;43.622;1.476;2024-01-16T07:37:09;3.23;;;2.30;;
15645;SDS011;7922;43.622;1.476;2024-01-16T07:39:34;4.73;;;2.20;;
15645;SDS011;7922;43.622;1.476;2024-01-16T07:41:59;4.07;;;2.30;;
15645;SDS011;7922;43.622;1.476;2024-01-16T07:44:24;5.53;;;2.50;;
15645;SDS011;7922;43.622;1.476;2024-01-16T07:46:50;4.77;;;2.70;;
15645;SDS011;7922;43.622;1.476;2024-01-16T07:49:15;3.63;;;2.50;;
15645;SDS011;7922;43.622;1.476;2024-01-16T07:51:40;3.30;;;2.40;;
15645;SDS011;7922;43.622;1.476;2024-01-16T07:54:06;2.37;;;2.17;;
15645;SDS011;7922;43.622;1.476;2024-01-16T07:56:32;2.60;;;2.40;;
15645;SDS011;7922;43.622;1.476;2024-01-16T07:58:58;3.73;;;2.20;;
15645;SDS011;7922;43.622;1.476;2024-01-16T08:01:23;4.07;;;2.30;;
15645;SDS011;7922;43.622;1.476;2024-01-16T08:03:49;4.33;;;2.53;;
15645;SDS011;7922;43.622;1.476;2024-01-16T08:06:14;3.40;;;2.10;;
15645;SDS011;7922;43.622;1.476;2024-01-16T08:08:39;4.90;;;1.90;;
15645;SDS011;7922;43.622;1.476;2024-01-16T08:11:05;3.47;;;2.10;;
15645;SDS011;7922;43.622;1.476;2024-01-16T08:13:30;6.87;;;2.53;;
15645;SDS011;7922;43.622;1.476;2024-01-16T08:15:55;4.37;;;1.90;;
15645;SDS011;7922;43.622;1.476;2024-01-16T08:18:20;5.57;;;1.93;;
15645;SDS011;7922;43.622;1.476;2024-01-16T08:20:46;3.03;;;1.83;;
15645;SDS011;7922;43.622;1.476;2024-01-16T08:23:11;2.93;;;2.40;;
15645;SDS011;7922;43.622;1.476;2024-01-16T08:25:36;2.70;;;2.30;;
15645;SDS011;7922;43.622;1.476;2024-01-16T08:28:02;2.30;;;2.10;;
15645;SDS011;7922;43.622;1.476;2024-01-16T08:30:27;3.43;;;1.97;;
15645;SDS011;7922;43.622;1.476;2024-01-16T08:32:52;3.10;;;2.23;;
15645;SDS011;7922;43.622;1.476;2024-01-16T08:35:18;3.13;;;2.10;;
15645;SDS011;7922;43.622;1.476;2024-01-16T08:37:43;3.47;;;2.00;;
15645;SDS011;7922;43.622;1.476;2024-01-16T08:40:08;3.90;;;2.17;;
15645;SDS011;7922;43.622;1.476;2024-01-16T08:42:34;2.63;;;2.03;;
15645;SDS011;7922;43.622;1.476;2024-01-16T08:44:59;2.40;;;2.10;;
15645;SDS011;7922;43.622;1.476;2024-01-16T08:47:24;2.97;;;2.30;;
15645;SDS011;7922;43.622;1.476;2024-01-16T08:49:50;3.30;;;2.40;;
15645;SDS011;7922;43.622;1.476;2024-01-16T08:52:15;3.63;;;2.43;;
15645;SDS011;7922;43.622;1.476;2024-01-16T08:54:40;2.57;;;2.37;;
15645;SDS011;7922;43.622;1.476;2024-01-16T08:57:06;3.13;;;2.57;;
15645;SDS011;7922;43.622;1.476;2024-01-16T08:59:31;5.13;;;2.60;;
15645;SDS011;7922;43.622;1.476;2024-01-16T09:01:56;3.30;;;2.70;;
15645;SDS011;7922;43.622;1.476;2024-01-16T09:04:21;4.37;;;2.47;;
15645;SDS011;7922;43.622;1.476;2024-01-16T09:06:47;5.43;;;2.63;;
15645;SDS011;7922;43.622;1.476;2024-01-16T09:09:12;5.93;;;3.03;;
15645;SDS011;7922;43.622;1.476;2024-01-16T09:11:37;7.20;;;2.67;;
15645;SDS011;7922;43.622;1.476;2024-01-16T09:14:03;6.23;;;2.73;;
15645;SDS011;7922;43.622;1.476;2024-01-16T09:16:28;4.30;;;2.43;;
15645;SDS011;7922;43.622;1.476;2024-01-16T09:18:53;6.30;;;2.60;;
15645;SDS011;7922;43.622;1.476;2024-01-16T09:21:19;4.60;;;2.70;;
15645;SDS011;7922;43.622;1.476;2024-01-16T09:23:44;4.27;;;2.03;;
15645;SDS011;7922;43.622;1.476;2024-01-16T09:26:09;4.00;;;2.70;;
15645;SDS011;7922;43.622;1.476;2024-01-16T09:28:34;4.83;;;2.23;;
15645;SDS011;7922;43.622;1.476;2024-01-16T09:31:00;4.60;;;2.67;;
15645;SDS011;7922;43.622;1.476;2024-01-16T09:33:25;7.23;;;2.87;;
15645;SDS011;7922;43.622;1.476;2024-01-16T09:35:51;4.47;;;2.93;;
15645;SDS011;7922;43.622;1.476;2024-01-16T09:38:16;3.97;;;2.23;;
15645;SDS011;7922;43.622;1.476;2024-01-16T09:40:41;2.77;;;1.83;;
15645;SDS011;7922;43.622;1.476;2024-01-16T09:43:07;3.47;;;1.83;;
15645;SDS011;7922;43.622;1.476;2024-01-16T09:45:32;4.40;;;1.90;;
15645;SDS011;7922;43.622;1.476;2024-01-16T09:48:02;4.87;;;1.57;;
15645;SDS011;7922;43.622;1.476;2024-01-16T09:50:29;3.50;;;1.30;;
15645;SDS011;7922;43.622;1.476;2024-01-16T09:52:54;4.23;;;1.60;;
15645;SDS011;7922;43.622;1.476;2024-01-16T09:55:20;4.63;;;1.83;;
15645;SDS011;7922;43.622;1.476;2024-01-16T09:57:45;2.23;;;1.67;;
15645;SDS011;7922;43.622;1.476;2024-01-16T10:00:11;3.77;;;1.87;;
15645;SDS011;7922;43.622;1.476;2024-01-16T10:02:40;5.13;;;2.30;;
15645;SDS011;7922;43.622;1.476;2024-01-16T10:05:08;4.07;;;1.90;;
15645;SDS011;7922;43.622;1.476;2024-01-16T10:07:39;2.77;;;1.33;;
15645;SDS011;7922;43.622;1.476;2024-01-16T10:10:06;5.57;;;1.80;;
15645;SDS011;7922;43.622;1.476;2024-01-16T10:12:32;1.37;;;1.27;;
15645;SDS011;7922;43.622;1.476;2024-01-16T10:14:58;4.80;;;1.60;;
15645;SDS011;7922;43.622;1.476;2024-01-16T10:17:37;3.07;;;1.60;;
15645;SDS011;7922;43.622;1.476;2024-01-16T10:20:06;3.73;;;1.93;;
15645;SDS011;7922;43.622;1.476;2024-01-16T10:22:32;6.17;;;2.13;;
15645;SDS011;7922;43.622;1.476;2024-01-16T10:27:29;5.20;;;2.20;;
15645;SDS011;7922;43.622;1.476;2024-01-16T10:29:55;3.37;;;1.70;;
15645;SDS011;7922;43.622;1.476;2024-01-16T10:32:27;4.90;;;1.83;;
15645;SDS011;7922;43.622;1.476;2024-01-16T10:37:50;6.03;;;1.40;;
15645;SDS011;7922;43.622;1.476;2024-01-16T10:40:19;4.73;;;2.10;;
15645;SDS011;7922;43.622;1.476;2024-01-16T10:42:47;2.80;;;1.50;;
15645;SDS011;7922;43.622;1.476;2024-01-16T10:45:22;6.17;;;1.50;;
15645;SDS011;7922;43.622;1.476;2024-01-16T10:47:49;5.57;;;1.87;;
15645;SDS011;7922;43.622;1.476;2024-01-16T10:50:25;4.97;;;1.40;;
15645;SDS011;7922;43.622;1.476;2024-01-16T10:52:50;3.87;;;1.50;;
15645;SDS011;7922;43.622;1.476;2024-01-16T10:55:21;2.97;;;1.07;;
15645;SDS011;7922;43.622;1.476;2024-01-16T10:57:48;2.67;;;1.30;;
15645;SDS011;7922;43.622;1.476;2024-01-16T11:00:14;3.80;;;1.87;;
15645;SDS011;7922;43.622;1.476;2024-01-16T11:02:49;4.30;;;1.57;;
15645;SDS011;7922;43.622;1.476;2024-01-16T11:05:28;5.27;;;1.73;;
15645;SDS011;7922;43.622;1.476;2024-01-16T11:07:56;2.67;;;1.07;;
15645;SDS011;7922;43.622;1.476;2024-01-16T11:10:24;4.57;;;1.60;;
15645;SDS011;7922;43.622;1.476;2024-01-16T11:12:50;2.13;;;1.10;;
15645;SDS011;7922;43.622;1.476;2024-01-16T11:15:17;4.13;;;1.30;;
15645;SDS011;7922;43.622;1.476;2024-01-16T11:17:43;2.93;;;1.37;;
15645;SDS011;7922;43.622;1.476;2024-01-16T11:20:09;2.60;;;1.40;;
15645;SDS011;7922;43.622;1.476;2024-01-16T11:22:40;2.73;;;1.23;;
15645;SDS011;7922;43.622;1.476;2024-01-16T11:25:13;3.40;;;1.40;;
15645;SDS011;7922;43.622;1.476;2024-01-16T11:27:40;3.20;;;1.40;;
15645;SDS011;7922;43.622;1.476;2024-01-16T11:30:07;3.60;;;1.23;;
15645;SDS011;7922;43.622;1.476;2024-01-16T11:35:02;4.43;;;1.40;;
15645;SDS011;7922;43.622;1.476;2024-01-16T11:37:29;2.40;;;1.20;;
15645;SDS011;7922;43.622;1.476;2024-01-16T11:40:29;4.23;;;1.60;;
15645;SDS011;7922;43.622;1.476;2024-01-16T11:42:47;3.57;;;1.80;;
15645;SDS011;7922;43.622;1.476;2024-01-16T11:48:13;2.97;;;1.60;;
15645;SDS011;7922;43.622;1.476;2024-01-16T11:50:39;2.67;;;1.20;;
15645;SDS011;7922;43.622;1.476;2024-01-16T11:53:05;3.57;;;1.30;;
15645;SDS011;7922;43.622;1.476;2024-01-16T12:00:45;3.93;;;1.30;;
15645;SDS011;7922;43.622;1.476;2024-01-16T12:03:14;2.73;;;1.20;;
15645;SDS011;7922;43.622;1.476;2024-01-16T12:05:40;3.13;;;1.30;;
15645;SDS011;7922;43.622;1.476;2024-01-16T12:08:06;1.70;;;1.50;;
15645;SDS011;7922;43.622;1.476;2024-01-16T12:10:31;2.00;;;1.20;;
15645;SDS011;7922;43.622;1.476;2024-01-16T12:12:57;3.20;;;1.53;;
15645;SDS011;7922;43.622;1.476;2024-01-16T12:15:23;2.23;;;1.33;;
15645;SDS011;7922;43.622;1.476;2024-01-16T12:20:20;3.23;;;1.50;;
15645;SDS011;7922;43.622;1.476;2024-01-16T12:22:56;3.13;;;1.47;;
15645;SDS011;7922;43.622;1.476;2024-01-16T12:25:25;3.50;;;1.17;;
15645;SDS011;7922;43.622;1.476;2024-01-16T12:27:58;2.77;;;1.37;;
15645;SDS011;7922;43.622;1.476;2024-01-16T12:30:29;2.57;;;1.33;;
15645;SDS011;7922;43.622;1.476;2024-01-16T12:33:08;4.40;;;2.00;;
15645;SDS011;7922;43.622;1.476;2024-01-16T12:35:37;3.07;;;1.77;;
15645;SDS011;7922;43.622;1.476;2024-01-16T12:38:03;4.73;;;1.73;;
15645;SDS011;7922;43.622;1.476;2024-01-16T12:40:30;3.03;;;1.43;;
15645;SDS011;7922;43.622;1.476;2024-01-16T12:42:55;2.53;;;1.80;;
15645;SDS011;7922;43.622;1.476;2024-01-16T12:45:21;2.90;;;1.83;;
15645;SDS011;7922;43.622;1.476;2024-01-16T12:47:50;4.93;;;1.50;;
15645;SDS011;7922;43.622;1.476;2024-01-16T12:50:23;3.37;;;1.50;;
15645;SDS011;7922;43.622;1.476;2024-01-16T12:52:50;3.27;;;1.60;;
15645;SDS011;7922;43.622;1.476;2024-01-16T12:55:15;2.77;;;1.33;;
15645;SDS011;7922;43.622;1.476;2024-01-16T12:57:41;2.97;;;1.40;;
15645;SDS011;7922;43.622;1.476;2024-01-16T13:00:24;4.43;;;1.50;;
15645;SDS011;7922;43.622;1.476;2024-01-16T13:02:50;3.03;;;1.40;;
15645;SDS011;7922;43.622;1.476;2024-01-16T13:05:16;1.77;;;1.40;;
15645;SDS011;7922;43.622;1.476;2024-01-16T13:07:42;3.00;;;1.63;;
15645;SDS011;7922;43.622;1.476;2024-01-16T13:10:10;2.90;;;1.27;;
15645;SDS011;7922;43.622;1.476;2024-01-16T13:12:36;4.23;;;1.43;;
15645;SDS011;7922;43.622;1.476;2024-01-16T13:15:02;3.33;;;1.50;;
15645;SDS011;7922;43.622;1.476;2024-01-16T13:17:27;5.10;;;1.80;;
15645;SDS011;7922;43.622;1.476;2024-01-16T13:19:52;4.17;;;1.50;;
15645;SDS011;7922;43.622;1.476;2024-01-16T13:22:18;1.77;;;1.33;;
15645;SDS011;7922;43.622;1.476;2024-01-16T13:24:43;4.90;;;1.57;;
15645;SDS011;7922;43.622;1.476;2024-01-16T13:27:08;5.00;;;1.50;;
15645;SDS011;7922;43.622;1.476;2024-01-16T13:29:34;3.47;;;1.50;;
15645;SDS011;7922;43.622;1.476;2024-01-16T13:31:59;3.57;;;1.50;;
15645;SDS011;7922;43.622;1.476;2024-01-16T13:34:24;3.67;;;1.40;;
15645;SDS011;7922;43.622;1.476;2024-01-16T13:36:49;3.17;;;1.30;;
15645;SDS011;7922;43.622;1.476;2024-01-16T13:39:16;2.80;;;1.60;;
15645;SDS011;7922;43.622;1.476;2024-01-16T13:41:42;6.43;;;1.77;;
15645;SDS011;7922;43.622;1.476;2024-01-16T13:44:08;3.50;;;1.60;;
15645;SDS011;7922;43.622;1.476;2024-01-16T13:46:33;2.43;;;1.03;;
15645;SDS011;7922;43.622;1.476;2024-01-16T13:48:58;3.20;;;1.33;;
15645;SDS011;7922;43.622;1.476;2024-01-16T13:51:23;2.77;;;1.57;;
15645;SDS011;7922;43.622;1.476;2024-01-16T13:53:49;3.30;;;1.30;;
15645;SDS011;7922;43.622;1.476;2024-01-16T13:56:14;3.17;;;1.40;;
15645;SDS011;7922;43.622;1.476;2024-01-16T13:58:39;1.83;;;1.20;;
15645;SDS011;7922;43.622;1.476;2024-01-16T14:01:04;7.47;;;1.57;;
15645;SDS011;7922;43.622;1.476;2024-01-16T14:03:30;3.07;;;1.50;;
15645;SDS011;7922;43.622;1.476;2024-01-16T14:05:55;3.53;;;1.40;;
15645;SDS011;7922;43.622;1.476;2024-01-16T14:08:20;3.87;;;2.17;;
15645;SDS011;7922;43.622;1.476;2024-01-16T14:10:45;3.07;;;1.67;;
15645;SDS011;7922;43.622;1.476;2024-01-16T14:13:11;3.83;;;1.73;;
15645;SDS011;7922;43.622;1.476;2024-01-16T14:15:36;3.90;;;1.57;;
15645;SDS011;7922;43.622;1.476;2024-01-16T14:18:01;2.53;;;1.40;;
15645;SDS011;7922;43.622;1.476;2024-01-16T14:20:27;3.30;;;1.80;;
15645;SDS011;7922;43.622;1.476;2024-01-16T14:22:52;5.30;;;1.80;;
15645;SDS011;7922;43.622;1.476;2024-01-16T14:25:18;5.67;;;2.90;;
15645;SDS011;7922;43.622;1.476;2024-01-16T14:27:45;3.93;;;1.63;;
15645;SDS011;7922;43.622;1.476;2024-01-16T14:30:13;3.50;;;1.67;;
15645;SDS011;7922;43.622;1.476;2024-01-16T14:32:40;3.23;;;1.97;;
15645;SDS011;7922;43.622;1.476;2024-01-16T14:35:07;2.50;;;1.47;;
15645;SDS011;7922;43.622;1.476;2024-01-16T14:37:33;4.60;;;1.50;;
15645;SDS011;7922;43.622;1.476;2024-01-16T14:39:59;2.67;;;1.40;;
15645;SDS011;7922;43.622;1.476;2024-01-16T14:42:24;2.83;;;1.50;;
15645;SDS011;7922;43.622;1.476;2024-01-16T14:44:50;4.07;;;1.73;;
15645;SDS011;7922;43.622;1.476;2024-01-16T14:47:15;4.43;;;1.67;;
15645;SDS011;7922;43.622;1.476;2024-01-16T14:49:40;5.33;;;2.13;;
15645;SDS011;7922;43.622;1.476;2024-01-16T14:52:05;4.57;;;2.10;;
15645;SDS011;7922;43.622;1.476;2024-01-16T14:54:31;2.50;;;1.50;;
15645;SDS011;7922;43.622;1.476;2024-01-16T14:56:56;3.03;;;1.60;;
15645;SDS011;7922;43.622;1.476;2024-01-16T14:59:21;6.93;;;1.60;;
15645;SDS011;7922;43.622;1.476;2024-01-16T15:01:46;3.30;;;1.30;;
15645;SDS011;7922;43.622;1.476;2024-01-16T15:04:12;3.03;;;1.27;;
15645;SDS011;7922;43.622;1.476;2024-01-16T15:06:37;4.47;;;1.50;;
15645;SDS011;7922;43.622;1.476;2024-01-16T15:09:02;4.30;;;1.53;;
15645;SDS011;7922;43.622;1.476;2024-01-16T15:11:27;3.67;;;1.40;;